Погода Чумлина неделю

Республика Дагестан, Россия

27 мая-02 июня
  • 27мая
    Сегодня
    +10°
    +23°
    Практически безоблачно
    ВремяПогодаТемператураВлажностьДавлениеВетер, м/сВероятность осадков
    00:00Небольшая облачность+14°C91 %726 мм0.9 м/с9 %
    03:00Небольшая облачность+14°C91 %727 мм1.1 м/с8 %
    06:00Облачно с прояснениями+16°C86 %728 мм1.0 м/с2 %
    09:00Небольшая облачность+19°C74 %729 мм1.0 м/с11 %
    12:00Облачно с прояснениями+21°C62 %729 мм1.2 м/с28 %
    15:00Практически безоблачно+21°C57 %730 мм3.0 м/с20 %
    18:00Практически безоблачно+17°C69 %730 мм0.6 м/с10 %
    21:00Практически безоблачно+13°C83 %730 мм0.9 м/с2 %
  • 28мая
    Вторник
    +12°
    +24°
    Небольшая облачность
    ВремяПогодаТемператураВлажностьДавлениеВетер, м/сВероятность осадков
    00:00Небольшая облачность+11°C86 %729 мм1.4 м/с2 %
    03:00Облачно с прояснениями+11°C85 %728 мм1.3 м/с2 %
    06:00Практически безоблачно+14°C80 %729 мм1.9 м/с2 %
    09:00Небольшая облачность+21°C54 %730 мм1.7 м/с2 %
    12:00Облачно с прояснениями+23°C48 %729 мм2.5 м/с7 %
    15:00Небольшая облачность+22°C55 %729 мм1.7 м/с8 %
    18:00Небольшая облачность+19°C70 %728 мм0.7 м/с3 %
    21:00Практически безоблачно+15°C84 %728 мм1.0 м/с2 %
  • 29мая
    Среда
    +14°
    +26°
    Практически безоблачно
    ВремяПогодаТемператураВлажностьДавлениеВетер, м/сВероятность осадков
    00:00Облачно с прояснениями+12°C86 %726 мм1.7 м/с2 %
    03:00Облачно с прояснениями+12°C84 %725 мм1.9 м/с2 %
    06:00Ясно и безоблачно+16°C78 %725 мм1.6 м/с2 %
    09:00Ясно и безоблачно+22°C58 %725 мм1.2 м/с2 %
    12:00Небольшая облачность+25°C58 %725 мм1.8 м/с9 %
    15:00Практически безоблачно+24°C69 %724 мм1.6 м/с7 %
    18:00Ясно и безоблачно+21°C78 %724 мм0.8 м/с3 %
    21:00Ясно и безоблачно+18°C87 %725 мм0.9 м/с3 %
  • 30мая
    Четверг
    +16°
    +25°
    Практически безоблачно
    ВремяПогодаТемператураВлажностьДавлениеВетер, м/сВероятность осадков
    00:00Ясно и безоблачно+16°C88 %724 мм1.4 м/с4 %
    03:00Ясно и безоблачно+15°C85 %724 мм2.1 м/с2 %
    06:00Ясно и безоблачно+18°C79 %725 мм1.8 м/с2 %
    09:00Ясно и безоблачно+25°C63 %726 мм2.9 м/с3 %
    12:00Небольшая облачность+25°C66 %726 мм4.0 м/с19 %
    15:00Практически безоблачно+24°C66 %726 мм1.7 м/с24 %
    18:00Ясно и безоблачно+22°C71 %725 мм0.5 м/с9 %
    21:00Небольшая облачность+18°C89 %725 мм1.1 м/с2 %
  • 31мая
    Пятница
    +16°
    +27°
    Практически безоблачно
    ВремяПогодаТемператураВлажностьДавлениеВетер, м/сВероятность осадков
    00:00Практически безоблачно+17°C86 %725 мм2.2 м/с3 %
    03:00Небольшая облачность+17°C74 %725 мм2.7 м/с2 %
    06:00Ясно и безоблачно+20°C71 %725 мм2.2 м/с3 %
    09:00Ясно и безоблачно+26°C66 %726 мм1.9 м/с2 %
    12:00Небольшая облачность+26°C63 %726 мм2.5 м/с17 %
    15:00Практически безоблачно+26°C65 %725 мм2.1 м/с23 %
    18:00Практически безоблачно+23°C72 %725 мм0.9 м/с8 %
    21:00Небольшая облачность+20°C84 %726 мм1.1 м/с7 %
Мы используем cookies
Соглашаюсь